Time;durP1;ratioP1;P1;durP2;ratioP2;P2;SDS_P1;SDS_P2;PMS_P1;PMS_P2;Temp;Humidity;BMP_temperature;BMP_pressure;BME280_temperature;BME280_humidity;BME280_pressure;Samples;Min_cycle;Max_cycle;Signal;HPM_P1;HPM_P2
2021/05/23 00:02:20;;;;;;;7.25;2.90;;;;;;;;;;4419315;32;20535;-51
2021/05/23 00:04:46;;;;;;;5.47;3.30;;;;;;;;;;4419049;32;20324;-52
2021/05/23 00:07:12;;;;;;;6.20;2.87;;;;;;;;;;4419445;32;20617;-51
2021/05/23 00:09:40;;;;;;;3.08;2.22;;;;;;;;;;4405302;32;20686;-53
2021/05/23 00:12:06;;;;;;;7.62;3.05;;;;;;;;;;4419534;32;20293;-52
2021/05/23 00:14:32;;;;;;;3.10;2.00;;;;;;;;;;4419224;32;20232;-52
2021/05/23 00:16:58;;;;;;;3.35;2.12;;;;;;;;;;4419409;32;20323;-51
2021/05/23 00:19:23;;;;;;;4.25;2.37;;;;;;;;;;4418685;32;20266;-52
2021/05/23 00:21:49;;;;;;;4.65;2.80;;;;;;;;;;4418934;32;20280;-52
2021/05/23 00:24:14;;;;;;;14.13;3.17;;;;;;;;;;4418876;32;20546;-52
2021/05/23 00:26:40;;;;;;;4.30;2.45;;;;;;;;;;4419057;32;20645;-52
2021/05/23 00:29:06;;;;;;;13.57;3.03;;;;;;;;;;4418917;32;20653;-50
2021/05/23 00:31:33;;;;;;;3.90;2.60;;;;;;;;;;4410576;32;20623;-52
2021/05/23 00:33:59;;;;;;;6.22;3.08;;;;;;;;;;4403645;32;20273;-52
2021/05/23 00:36:25;;;;;;;5.30;3.05;;;;;;;;;;4403734;32;20209;-53
2021/05/23 00:38:51;;;;;;;5.07;3.10;;;;;;;;;;4403931;32;20642;-53
2021/05/23 00:41:17;;;;;;;5.50;3.37;;;;;;;;;;4403894;32;20252;-53
2021/05/23 00:43:42;;;;;;;3.87;3.08;;;;;;;;;;4403620;32;20201;-52
2021/05/23 00:46:08;;;;;;;4.40;3.20;;;;;;;;;;4403009;32;20658;-52
2021/05/23 00:48:34;;;;;;;7.28;3.33;;;;;;;;;;4403587;32;20205;-53
2021/05/23 00:50:59;;;;;;;4.78;3.00;;;;;;;;;;4403487;32;20268;-53
2021/05/23 00:53:25;;;;;;;3.37;2.90;;;;;;;;;;4403753;32;20222;-53
2021/05/23 00:55:50;;;;;;;4.57;2.97;;;;;;;;;;4415039;32;20365;-52
2021/05/23 00:58:18;;;;;;;5.93;2.87;;;;;;;;;;4418515;32;20255;-52
2021/05/23 01:00:47;;;;;;;13.50;3.37;;;;;;;;;;4418369;32;20549;-52
2021/05/23 01:03:25;;;;;;;3.67;3.10;;;;;;;;;;4418163;32;20229;-52
2021/05/23 01:05:55;;;;;;;9.00;3.15;;;;;;;;;;4418219;32;20209;-53
2021/05/23 01:08:22;;;;;;;5.20;3.15;;;;;;;;;;4418702;32;20231;-51
2021/05/23 01:11:09;;;;;;;6.20;3.00;;;;;;;;;;4418354;32;20685;-52
2021/05/23 01:13:37;;;;;;;6.18;2.87;;;;;;;;;;4418477;32;20261;-52
2021/05/23 01:16:12;;;;;;;4.03;2.85;;;;;;;;;;4418186;32;20209;-52
2021/05/23 01:18:48;;;;;;;3.72;3.00;;;;;;;;;;4417985;32;20287;-52
2021/05/23 01:21:19;;;;;;;5.03;3.20;;;;;;;;;;4418177;32;20255;-52
2021/05/23 01:23:47;;;;;;;3.72;3.03;;;;;;;;;;4418278;32;20213;-52
2021/05/23 01:26:14;;;;;;;7.60;3.17;;;;;;;;;;4418207;32;20722;-51
2021/05/23 01:28:57;;;;;;;5.60;2.90;;;;;;;;;;4417870;32;20283;-52
2021/05/23 01:31:26;;;;;;;9.38;3.03;;;;;;;;;;4411083;32;20294;-53
2021/05/23 01:33:53;;;;;;;5.32;3.25;;;;;;;;;;4388937;32;20336;-52
2021/05/23 01:36:22;;;;;;;8.57;2.92;;;;;;;;;;4402724;32;20233;-52
2021/05/23 01:38:47;;;;;;;3.57;3.00;;;;;;;;;;4402710;32;20793;-52
2021/05/23 01:41:14;;;;;;;4.75;2.97;;;;;;;;;;4402581;32;20230;-52
2021/05/23 01:43:39;;;;;;;10.93;2.67;;;;;;;;;;4402748;32;20281;-52
2021/05/23 01:46:06;;;;;;;8.32;2.85;;;;;;;;;;4402839;32;20273;-52
2021/05/23 01:48:37;;;;;;;3.72;2.72;;;;;;;;;;4402565;32;20209;-52
2021/05/23 01:51:03;;;;;;;6.72;3.10;;;;;;;;;;4402824;32;20236;-52
2021/05/23 01:53:29;;;;;;;9.82;2.80;;;;;;;;;;4402593;32;20221;-53
2021/05/23 01:55:54;;;;;;;5.40;3.47;;;;;;;;;;4414825;32;20336;-53
2021/05/23 01:58:20;;;;;;;3.78;2.90;;;;;;;;;;4403221;32;20208;-52
2021/05/23 02:00:51;;;;;;;10.02;2.92;;;;;;;;;;4417517;32;20323;-53
2021/05/23 02:03:19;;;;;;;8.63;3.40;;;;;;;;;;4403523;32;20311;-52
2021/05/23 02:05:50;;;;;;;6.53;3.47;;;;;;;;;;4404153;32;20387;-53
2021/05/23 02:08:18;;;;;;;4.35;2.97;;;;;;;;;;4417695;32;20737;-54
2021/05/23 02:10:44;;;;;;;4.00;3.60;;;;;;;;;;4417822;32;20544;-53
2021/05/23 02:13:10;;;;;;;3.20;2.72;;;;;;;;;;4417319;32;20317;-53
2021/05/23 02:15:36;;;;;;;6.28;3.15;;;;;;;;;;4417619;32;20311;-52
2021/05/23 02:18:03;;;;;;;8.88;3.10;;;;;;;;;;4417534;32;20239;-53
2021/05/23 02:20:30;;;;;;;3.30;2.85;;;;;;;;;;4417306;32;20224;-53
2021/05/23 02:23:00;;;;;;;8.57;3.55;;;;;;;;;;4417476;32;20411;-53
2021/05/23 02:25:28;;;;;;;4.12;3.03;;;;;;;;;;4417276;32;20244;-52
2021/05/23 02:27:56;;;;;;;3.37;2.60;;;;;;;;;;4417539;32;20225;-52
2021/05/23 02:30:28;;;;;;;7.13;3.13;;;;;;;;;;4417277;32;20194;-53
2021/05/23 02:32:55;;;;;;;3.30;2.77;;;;;;;;;;4417621;32;20338;-53
2021/05/23 02:35:24;;;;;;;3.97;2.70;;;;;;;;;;4417540;32;20273;-53
2021/05/23 02:37:49;;;;;;;4.10;2.40;;;;;;;;;;4403577;32;20344;-53
2021/05/23 02:40:19;;;;;;;4.03;3.13;;;;;;;;;;4403185;32;20315;-54
2021/05/23 02:42:45;;;;;;;4.73;3.17;;;;;;;;;;4417267;32;20221;-52
2021/05/23 02:45:13;;;;;;;4.27;3.17;;;;;;;;;;4417219;32;20268;-52
2021/05/23 02:47:38;;;;;;;5.60;3.10;;;;;;;;;;4417391;32;20317;-53
2021/05/23 02:50:06;;;;;;;8.65;3.45;;;;;;;;;;4417235;32;20272;-54
2021/05/23 02:52:32;;;;;;;8.87;3.37;;;;;;;;;;4391273;32;20256;-53
2021/05/23 02:54:57;;;;;;;5.37;3.03;;;;;;;;;;4416906;32;20292;-52
2021/05/23 02:57:23;;;;;;;4.00;2.90;;;;;;;;;;4417360;32;20327;-53
2021/05/23 02:59:48;;;;;;;7.03;3.47;;;;;;;;;;4417049;32;20205;-52
2021/05/23 03:02:14;;;;;;;9.38;3.25;;;;;;;;;;4417023;32;20278;-53
2021/05/23 03:04:40;;;;;;;3.67;2.97;;;;;;;;;;4416898;32;20281;-53
2021/05/23 03:07:05;;;;;;;5.63;3.20;;;;;;;;;;4417197;32;20220;-52
2021/05/23 03:09:31;;;;;;;3.90;2.80;;;;;;;;;;4417729;32;20274;-52
2021/05/23 03:11:56;;;;;;;7.07;2.70;;;;;;;;;;4420193;32;20221;-52
2021/05/23 03:14:22;;;;;;;6.33;3.03;;;;;;;;;;4420212;32;20243;-52
2021/05/23 03:16:47;;;;;;;10.68;2.80;;;;;;;;;;4406089;32;20319;-52
2021/05/23 03:19:13;;;;;;;5.25;2.95;;;;;;;;;;4419701;32;20216;-52
2021/05/23 03:21:40;;;;;;;3.00;2.53;;;;;;;;;;4420105;32;20214;-53
2021/05/23 03:24:06;;;;;;;3.10;2.42;;;;;;;;;;4419690;32;20608;-52
2021/05/23 03:26:33;;;;;;;7.15;2.75;;;;;;;;;;4420113;32;20237;-53
2021/05/23 03:28:59;;;;;;;6.75;3.28;;;;;;;;;;4419797;32;20197;-53
2021/05/23 03:31:24;;;;;;;3.72;2.50;;;;;;;;;;4419541;32;20240;-52
2021/05/23 03:33:50;;;;;;;8.13;3.33;;;;;;;;;;4420084;32;20236;-52
2021/05/23 03:36:15;;;;;;;4.03;2.62;;;;;;;;;;4419679;32;20216;-52
2021/05/23 03:38:45;;;;;;;7.65;3.67;;;;;;;;;;4419532;32;20509;-52
2021/05/23 03:41:12;;;;;;;4.70;3.60;;;;;;;;;;4419531;32;20251;-53
2021/05/23 03:43:38;;;;;;;7.93;3.92;;;;;;;;;;4419616;32;20280;-52
2021/05/23 03:46:04;;;;;;;11.18;3.80;;;;;;;;;;4419486;32;20708;-52
2021/05/23 03:48:29;;;;;;;9.73;4.03;;;;;;;;;;4419835;32;20541;-52
2021/05/23 03:50:55;;;;;;;5.95;4.65;;;;;;;;;;4419649;32;20367;-53
2021/05/23 03:53:20;;;;;;;15.03;4.00;;;;;;;;;;4419269;32;20198;-51
2021/05/23 03:55:46;;;;;;;10.38;4.87;;;;;;;;;;4419577;32;20272;-51
2021/05/23 03:58:12;;;;;;;5.85;4.65;;;;;;;;;;4419364;32;20748;-51
2021/05/23 04:00:38;;;;;;;7.60;4.40;;;;;;;;;;4419327;32;20479;-52
2021/05/23 04:03:03;;;;;;;8.23;4.57;;;;;;;;;;4419609;32;20313;-52
2021/05/23 04:05:29;;;;;;;7.23;4.27;;;;;;;;;;4418883;32;20568;-52
2021/05/23 04:07:56;;;;;;;9.53;4.50;;;;;;;;;;4419390;32;20217;-51
2021/05/23 04:10:26;;;;;;;5.40;4.25;;;;;;;;;;4419439;32;20281;-51
2021/05/23 04:12:53;;;;;;;8.17;4.47;;;;;;;;;;4419111;32;20579;-51
2021/05/23 04:15:19;;;;;;;7.00;4.75;;;;;;;;;;4419093;32;20582;-51
2021/05/23 04:17:45;;;;;;;7.40;3.83;;;;;;;;;;4419167;32;20221;-53
2021/05/23 04:20:13;;;;;;;6.20;3.87;;;;;;;;;;4404969;32;20296;-52
2021/05/23 04:22:39;;;;;;;6.80;4.12;;;;;;;;;;4418274;32;20216;-52
2021/05/23 04:25:09;;;;;;;9.45;3.50;;;;;;;;;;4418948;32;20820;-53
2021/05/23 04:27:35;;;;;;;5.50;3.83;;;;;;;;;;4419110;32;20259;-52
2021/05/23 04:30:01;;;;;;;4.68;3.40;;;;;;;;;;4418948;32;20280;-53
2021/05/23 04:32:26;;;;;;;6.03;3.87;;;;;;;;;;4418670;32;20290;-52
2021/05/23 04:34:51;;;;;;;6.75;3.33;;;;;;;;;;4419028;32;20209;-52
2021/05/23 04:37:17;;;;;;;4.37;3.37;;;;;;;;;;4418818;32;20292;-52
2021/05/23 04:39:43;;;;;;;8.63;4.43;;;;;;;;;;4418501;32;20257;-53
2021/05/23 04:42:09;;;;;;;7.27;4.13;;;;;;;;;;4418597;32;20335;-52
2021/05/23 04:44:34;;;;;;;8.37;3.80;;;;;;;;;;4418689;32;20208;-53
2021/05/23 04:47:00;;;;;;;5.62;3.50;;;;;;;;;;4418974;32;20245;-52
2021/05/23 04:49:25;;;;;;;5.20;3.78;;;;;;;;;;4417010;32;20244;-52
2021/05/23 04:51:51;;;;;;;9.10;4.30;;;;;;;;;;4418851;32;20252;-52
2021/05/23 04:54:16;;;;;;;7.25;4.00;;;;;;;;;;4416351;32;20311;-53
2021/05/23 04:56:42;;;;;;;32.67;17.92;;;;;;;;;;4403582;32;20214;-53
2021/05/23 04:59:07;;;;;;;15.60;11.43;;;;;;;;;;4405735;32;20326;-53
2021/05/23 05:01:33;;;;;;;14.37;6.73;;;;;;;;;;4408894;32;20241;-53
2021/05/23 05:03:58;;;;;;;7.73;3.90;;;;;;;;;;4403434;32;20322;-52
2021/05/23 05:06:24;;;;;;;4.50;3.30;;;;;;;;;;4403008;32;20222;-52
2021/05/23 05:08:49;;;;;;;10.47;4.13;;;;;;;;;;4403128;32;20224;-52
2021/05/23 05:11:15;;;;;;;7.97;4.67;;;;;;;;;;4403259;32;20226;-52
2021/05/23 05:13:40;;;;;;;6.30;3.50;;;;;;;;;;4403139;32;20547;-52
2021/05/23 05:16:07;;;;;;;5.50;3.40;;;;;;;;;;4403046;32;20269;-52
2021/05/23 05:18:34;;;;;;;5.80;4.30;;;;;;;;;;4406804;32;20278;-52
2021/05/23 05:21:00;;;;;;;6.32;3.92;;;;;;;;;;4404376;32;20259;-52
2021/05/23 05:23:25;;;;;;;6.60;4.53;;;;;;;;;;4404305;32;20315;-52
2021/05/23 05:25:51;;;;;;;4.40;3.80;;;;;;;;;;4418301;32;20359;-53
2021/05/23 05:28:16;;;;;;;6.87;4.27;;;;;;;;;;4417885;32;20256;-53
2021/05/23 05:30:42;;;;;;;9.03;4.43;;;;;;;;;;4415278;32;20739;-52
2021/05/23 05:33:07;;;;;;;10.53;4.63;;;;;;;;;;4402905;32;20403;-52
2021/05/23 05:35:32;;;;;;;5.73;3.70;;;;;;;;;;4402871;32;20304;-52
2021/05/23 05:37:58;;;;;;;7.03;4.65;;;;;;;;;;4402877;32;20233;-52
2021/05/23 05:40:23;;;;;;;16.73;5.47;;;;;;;;;;4402647;32;20307;-52
2021/05/23 05:42:49;;;;;;;12.23;5.68;;;;;;;;;;4402394;32;20337;-52
2021/05/23 05:45:15;;;;;;;10.07;5.93;;;;;;;;;;4402435;32;20451;-53
2021/05/23 05:47:40;;;;;;;7.35;4.97;;;;;;;;;;4402751;32;20275;-53
2021/05/23 05:50:06;;;;;;;7.60;5.00;;;;;;;;;;4402546;32;20361;-53
2021/05/23 05:52:32;;;;;;;13.73;5.95;;;;;;;;;;4402539;32;20245;-51
2021/05/23 05:54:57;;;;;;;6.57;4.93;;;;;;;;;;4408632;32;20322;-53
2021/05/23 05:57:23;;;;;;;9.68;6.25;;;;;;;;;;4418003;32;20704;-52
2021/05/23 05:59:48;;;;;;;10.05;5.05;;;;;;;;;;4417801;32;20204;-53
2021/05/23 06:02:15;;;;;;;8.27;5.40;;;;;;;;;;4417985;32;20229;-53
2021/05/23 06:04:41;;;;;;;7.75;5.30;;;;;;;;;;4403665;32;20292;-53
2021/05/23 06:07:06;;;;;;;14.13;12.20;;;;;;;;;;4417432;32;20290;-53
2021/05/23 06:09:31;;;;;;;12.75;5.25;;;;;;;;;;4417551;32;20273;-53
2021/05/23 06:11:57;;;;;;;5.82;4.47;;;;;;;;;;4417968;32;20314;-52
2021/05/23 06:14:22;;;;;;;4.80;3.90;;;;;;;;;;4417569;32;20208;-53
2021/05/23 06:16:48;;;;;;;8.52;4.30;;;;;;;;;;4417381;32;20619;-53
2021/05/23 06:19:13;;;;;;;12.32;4.25;;;;;;;;;;4417278;32;20599;-52
2021/05/23 06:21:39;;;;;;;7.95;4.25;;;;;;;;;;4417757;32;20262;-52
2021/05/23 06:24:05;;;;;;;4.72;3.22;;;;;;;;;;4416961;32;20301;-51
2021/05/23 06:26:30;;;;;;;11.02;3.37;;;;;;;;;;4417430;32;20225;-52
2021/05/23 06:28:56;;;;;;;5.53;3.90;;;;;;;;;;4417475;32;20321;-52
2021/05/23 06:31:22;;;;;;;6.18;3.70;;;;;;;;;;4417284;32;20244;-52
2021/05/23 06:33:47;;;;;;;14.98;4.00;;;;;;;;;;4417780;32;20228;-52
2021/05/23 06:36:13;;;;;;;8.60;3.72;;;;;;;;;;4417405;32;20237;-52
2021/05/23 06:38:38;;;;;;;6.80;3.80;;;;;;;;;;4417068;32;20547;-51
2021/05/23 06:41:04;;;;;;;5.72;4.18;;;;;;;;;;4417320;32;20596;-52
2021/05/23 06:43:29;;;;;;;8.52;3.72;;;;;;;;;;4403471;32;20302;-52
2021/05/23 06:45:55;;;;;;;15.43;3.65;;;;;;;;;;4419716;32;20329;-53
2021/05/23 06:48:21;;;;;;;3.67;3.00;;;;;;;;;;4420375;32;20609;-52
2021/05/23 06:50:47;;;;;;;4.68;3.20;;;;;;;;;;4420220;32;20239;-54
2021/05/23 06:53:13;;;;;;;5.53;3.20;;;;;;;;;;4419722;32;20764;-51
2021/05/23 06:55:38;;;;;;;11.50;3.10;;;;;;;;;;4419909;32;20304;-52
2021/05/23 06:58:04;;;;;;;4.47;3.10;;;;;;;;;;4420516;32;20335;-52
2021/05/23 07:00:29;;;;;;;9.75;2.60;;;;;;;;;;4406199;32;20296;-51
2021/05/23 07:02:55;;;;;;;7.07;3.60;;;;;;;;;;4420632;32;20663;-52
2021/05/23 07:05:20;;;;;;;4.80;3.33;;;;;;;;;;4420101;32;20218;-52
2021/05/23 07:07:47;;;;;;;4.95;2.80;;;;;;;;;;4406327;32;20250;-53
2021/05/23 07:10:13;;;;;;;4.15;2.83;;;;;;;;;;4420371;32;20205;-52
2021/05/23 07:12:38;;;;;;;4.70;3.35;;;;;;;;;;4420384;32;20293;-52
2021/05/23 07:15:05;;;;;;;5.43;3.00;;;;;;;;;;4420222;32;20348;-52
2021/05/23 07:17:30;;;;;;;5.45;3.15;;;;;;;;;;4419793;32;20280;-51
2021/05/23 07:19:55;;;;;;;11.75;2.62;;;;;;;;;;4419472;32;20705;-52
2021/05/23 07:22:21;;;;;;;4.43;3.20;;;;;;;;;;4419917;32;20257;-51
2021/05/23 07:24:47;;;;;;;4.00;2.80;;;;;;;;;;4419572;32;20205;-53
2021/05/23 07:27:12;;;;;;;6.95;2.97;;;;;;;;;;4420055;32;20342;-53
2021/05/23 07:29:38;;;;;;;4.28;2.50;;;;;;;;;;4419942;32;20317;-53
2021/05/23 07:32:03;;;;;;;10.07;2.85;;;;;;;;;;4419978;32;20501;-53
2021/05/23 07:34:29;;;;;;;7.03;2.72;;;;;;;;;;4419902;32;20197;-53
2021/05/23 07:36:55;;;;;;;8.00;3.35;;;;;;;;;;4419956;32;20248;-53
2021/05/23 07:39:21;;;;;;;4.18;3.05;;;;;;;;;;4419707;32;20271;-53
2021/05/23 07:41:46;;;;;;;3.70;3.12;;;;;;;;;;4405868;32;20241;-53
2021/05/23 07:44:12;;;;;;;4.10;2.87;;;;;;;;;;4419393;32;20209;-53
2021/05/23 07:46:38;;;;;;;4.18;2.80;;;;;;;;;;4419729;32;20311;-52
2021/05/23 07:49:03;;;;;;;3.10;2.10;;;;;;;;;;4419545;32;20237;-52
2021/05/23 07:51:29;;;;;;;4.00;2.85;;;;;;;;;;4419580;32;20663;-53
2021/05/23 07:53:54;;;;;;;6.40;2.78;;;;;;;;;;4419529;32;20201;-53
2021/05/23 07:56:20;;;;;;;11.98;3.10;;;;;;;;;;4419404;32;20209;-53
2021/05/23 07:58:46;;;;;;;2.90;2.62;;;;;;;;;;4419662;32;20641;-53
2021/05/23 08:01:13;;;;;;;9.52;2.42;;;;;;;;;;4419697;32;20237;-53
2021/05/23 08:03:40;;;;;;;3.00;2.53;;;;;;;;;;4419729;32;20322;-53
2021/05/23 08:06:07;;;;;;;12.55;2.62;;;;;;;;;;4419120;32;20217;-53
2021/05/23 08:08:32;;;;;;;9.90;2.87;;;;;;;;;;4419145;32;20544;-52
2021/05/23 08:10:58;;;;;;;6.75;2.58;;;;;;;;;;4405385;32;20327;-52
2021/05/23 08:13:23;;;;;;;6.80;2.85;;;;;;;;;;4419552;32;20197;-51
2021/05/23 08:15:49;;;;;;;4.50;2.55;;;;;;;;;;4419404;32;20272;-52
2021/05/23 08:18:22;;;;;;;7.53;2.62;;;;;;;;;;4419052;32;20213;-51
2021/05/23 08:20:49;;;;;;;3.12;2.37;;;;;;;;;;4419357;32;20228;-52
2021/05/23 08:23:14;;;;;;;8.35;2.85;;;;;;;;;;4419109;32;20225;-52
2021/05/23 08:25:40;;;;;;;4.15;2.80;;;;;;;;;;4419208;32;20292;-51
2021/05/23 08:28:05;;;;;;;8.27;2.83;;;;;;;;;;4419070;32;20596;-52
2021/05/23 08:30:31;;;;;;;6.55;2.22;;;;;;;;;;4419295;32;20321;-52
2021/05/23 08:32:56;;;;;;;5.62;2.95;;;;;;;;;;4419281;32;20316;-53
2021/05/23 08:35:22;;;;;;;9.18;2.60;;;;;;;;;;4419092;32;20272;-53
2021/05/23 08:37:47;;;;;;;3.58;2.55;;;;;;;;;;4419359;32;20419;-53
2021/05/23 08:40:13;;;;;;;2.83;2.10;;;;;;;;;;4418806;32;20283;-51
2021/05/23 08:42:39;;;;;;;3.08;2.53;;;;;;;;;;4405473;32;20234;-53
2021/05/23 08:45:05;;;;;;;4.57;2.10;;;;;;;;;;4418743;32;20740;-54
2021/05/23 08:47:38;;;;;;;5.18;2.83;;;;;;;;;;4418641;32;20255;-53
2021/05/23 08:50:04;;;;;;;5.60;2.05;;;;;;;;;;4418443;32;20267;-53
2021/05/23 08:52:29;;;;;;;2.92;2.00;;;;;;;;;;4418318;32;20399;-54
2021/05/23 08:54:55;;;;;;;3.95;2.10;;;;;;;;;;4418335;32;20577;-52
2021/05/23 08:57:25;;;;;;;13.38;2.75;;;;;;;;;;4418470;32;20233;-52
2021/05/23 08:59:51;;;;;;;3.97;1.98;;;;;;;;;;4418107;32;20220;-52
2021/05/23 09:02:17;;;;;;;6.22;2.12;;;;;;;;;;4418468;32;20351;-52
2021/05/23 09:04:47;;;;;;;5.15;1.95;;;;;;;;;;4418039;32;20217;-52
2021/05/23 09:07:13;;;;;;;2.92;1.98;;;;;;;;;;4417622;32;20258;-53
2021/05/23 09:09:43;;;;;;;9.88;2.45;;;;;;;;;;4417877;32;20506;-52
2021/05/23 09:12:11;;;;;;;4.50;2.20;;;;;;;;;;4418066;32;20245;-53
2021/05/23 09:14:38;;;;;;;7.80;2.62;;;;;;;;;;4418192;32;20239;-53
2021/05/23 09:17:05;;;;;;;7.40;2.05;;;;;;;;;;4418213;32;20247;-53
2021/05/23 09:19:42;;;;;;;6.62;2.40;;;;;;;;;;4417772;32;20684;-53
2021/05/23 09:22:12;;;;;;;4.78;2.20;;;;;;;;;;4417944;32;20247;-52
2021/05/23 09:24:47;;;;;;;2.95;2.10;;;;;;;;;;4417960;32;20628;-53
2021/05/23 09:27:13;;;;;;;6.68;2.37;;;;;;;;;;4418200;32;20306;-51
2021/05/23 09:29:38;;;;;;;4.07;1.95;;;;;;;;;;4417459;32;20194;-53
2021/05/23 09:32:14;;;;;;;2.10;1.65;;;;;;;;;;4417863;32;20217;-52
2021/05/23 09:34:40;;;;;;;5.75;2.03;;;;;;;;;;4417655;32;20262;-52
2021/05/23 09:37:12;;;;;;;3.95;2.20;;;;;;;;;;4417565;32;20299;-52
2021/05/23 09:39:39;;;;;;;8.40;2.58;;;;;;;;;;4417494;32;20375;-52
2021/05/23 09:42:06;;;;;;;6.03;2.35;;;;;;;;;;4417959;32;20293;-53
2021/05/23 09:44:32;;;;;;;8.35;2.70;;;;;;;;;;4417628;32;20634;-52
2021/05/23 09:47:12;;;;;;;6.80;1.90;;;;;;;;;;4417713;32;20275;-51
2021/05/23 09:49:44;;;;;;;5.75;2.10;;;;;;;;;;4417184;32;20733;-53
2021/05/23 09:52:12;;;;;;;2.35;2.10;;;;;;;;;;4417589;32;20373;-53
2021/05/23 09:54:52;;;;;;;4.57;2.05;;;;;;;;;;4417357;32;20368;-53
2021/05/23 09:57:24;;;;;;;8.52;2.20;;;;;;;;;;4417371;32;20303;-52
2021/05/23 10:00:07;;;;;;;5.47;1.95;;;;;;;;;;4417077;32;20240;-53
2021/05/23 10:02:33;;;;;;;6.50;1.95;;;;;;;;;;4396684;32;20367;-53
2021/05/23 10:05:05;;;;;;;5.80;2.58;;;;;;;;;;4401948;32;20287;-51
2021/05/23 10:07:34;;;;;;;2.67;2.15;;;;;;;;;;4402140;32;20329;-52
2021/05/23 10:10:01;;;;;;;3.92;2.28;;;;;;;;;;4409075;32;20205;-53
2021/05/23 10:12:27;;;;;;;5.70;2.35;;;;;;;;;;4416269;32;20640;-52
2021/05/23 10:14:53;;;;;;;4.12;2.70;;;;;;;;;;4417169;32;20205;-52
2021/05/23 10:17:20;;;;;;;6.95;2.33;;;;;;;;;;4413485;32;20233;-52
2021/05/23 10:19:46;;;;;;;6.00;1.90;;;;;;;;;;4404907;32;20306;-53
2021/05/23 10:22:12;;;;;;;4.40;2.40;;;;;;;;;;4402115;32;20621;-53
2021/05/23 10:24:38;;;;;;;6.07;2.70;;;;;;;;;;4401991;32;20318;-53
2021/05/23 10:27:07;;;;;;;3.78;2.30;;;;;;;;;;4402086;32;20241;-52
2021/05/23 10:29:35;;;;;;;9.45;3.25;;;;;;;;;;4401568;32;20660;-52
2021/05/23 10:32:10;;;;;;;2.58;1.80;;;;;;;;;;4412945;32;20217;-52
2021/05/23 10:34:46;;;;;;;3.65;2.15;;;;;;;;;;4417025;32;20219;-52
2021/05/23 10:37:12;;;;;;;3.00;2.42;;;;;;;;;;4416962;32;20209;-53
2021/05/23 10:39:47;;;;;;;4.90;2.60;;;;;;;;;;4416709;32;20288;-54
2021/05/23 10:42:13;;;;;;;6.10;2.15;;;;;;;;;;4417066;32;20263;-53
2021/05/23 10:44:57;;;;;;;4.35;2.47;;;;;;;;;;4416760;32;20284;-52
2021/05/23 10:47:30;;;;;;;5.18;2.30;;;;;;;;;;4417384;32;20335;-52
2021/05/23 10:50:05;;;;;;;3.12;1.98;;;;;;;;;;4416839;32;20277;-52
2021/05/23 10:52:33;;;;;;;3.55;2.20;;;;;;;;;;4416948;32;20288;-53
2021/05/23 10:55:19;;;;;;;5.53;2.60;;;;;;;;;;4416982;32;20350;-52
2021/05/23 10:57:50;;;;;;;2.53;1.95;;;;;;;;;;4416616;32;20323;-53
2021/05/23 11:00:23;;;;;;;3.75;1.90;;;;;;;;;;4416575;32;20294;-53
2021/05/23 11:02:51;;;;;;;2.53;1.52;;;;;;;;;;4417189;32;20617;-53
2021/05/23 11:05:27;;;;;;;2.58;1.90;;;;;;;;;;4416584;32;20295;-53
2021/05/23 11:07:57;;;;;;;1.98;1.48;;;;;;;;;;4416823;32;20236;-53
2021/05/23 11:10:26;;;;;;;4.80;1.73;;;;;;;;;;4416644;32;20276;-54
2021/05/23 11:13:00;;;;;;;3.55;2.12;;;;;;;;;;4416634;32;20251;-53
2021/05/23 11:15:38;;;;;;;3.78;1.50;;;;;;;;;;4416765;32;20193;-53
2021/05/23 11:18:03;;;;;;;2.15;1.62;;;;;;;;;;4416667;32;20659;-53
2021/05/23 11:20:29;;;;;;;2.47;1.58;;;;;;;;;;4416564;32;20315;-54
2021/05/23 11:23:05;;;;;;;3.30;1.67;;;;;;;;;;4416673;32;20225;-52
2021/05/23 11:25:32;;;;;;;2.53;1.70;;;;;;;;;;4416220;32;20360;-53
2021/05/23 11:28:05;;;;;;;3.30;1.65;;;;;;;;;;4416329;32;20332;-53
2021/05/23 11:30:36;;;;;;;4.45;1.95;;;;;;;;;;4417228;32;20201;-53
2021/05/23 11:33:09;;;;;;;2.05;1.55;;;;;;;;;;4419524;32;20526;-52
2021/05/23 11:35:40;;;;;;;3.15;1.37;;;;;;;;;;4419246;32;20584;-53
2021/05/23 11:38:06;;;;;;;3.15;1.42;;;;;;;;;;4419374;32;20590;-53
2021/05/23 11:40:36;;;;;;;3.83;1.42;;;;;;;;;;4419285;32;20217;-53
2021/05/23 11:43:28;;;;;;;7.10;1.60;;;;;;;;;;4419200;32;20284;-53
2021/05/23 11:46:05;;;;;;;11.70;2.00;;;;;;;;;;4415687;32;20301;-53
2021/05/23 11:48:41;;;;;;;1.55;1.10;;;;;;;;;;4418783;32;20208;-53
2021/05/23 11:51:11;;;;;;;6.10;1.58;;;;;;;;;;4418920;32;20211;-52
2021/05/23 11:53:47;;;;;;;4.07;1.50;;;;;;;;;;4418978;32;20288;-53
2021/05/23 11:56:15;;;;;;;5.85;1.20;;;;;;;;;;4418768;32;20225;-52
2021/05/23 11:58:51;;;;;;;2.40;1.40;;;;;;;;;;4418619;32;20237;-52
2021/05/23 12:01:30;;;;;;;4.10;1.50;;;;;;;;;;4403799;32;20224;-52
2021/05/23 12:04:05;;;;;;;1.95;1.05;;;;;;;;;;4403582;32;20193;-53
2021/05/23 12:06:42;;;;;;;3.03;1.00;;;;;;;;;;4403854;32;20304;-52
2021/05/23 12:09:16;;;;;;;2.22;1.30;;;;;;;;;;4403680;32;20206;-52
2021/05/23 12:11:52;;;;;;;10.57;1.33;;;;;;;;;;4403986;32;20221;-52
2021/05/23 12:14:27;;;;;;;2.42;1.40;;;;;;;;;;4403825;32;20805;-53
2021/05/23 12:17:05;;;;;;;2.72;1.40;;;;;;;;;;4403778;32;20293;-52
2021/05/23 12:19:45;;;;;;;2.10;1.10;;;;;;;;;;4413172;32;20652;-52
2021/05/23 12:22:11;;;;;;;9.70;1.40;;;;;;;;;;4418640;32;20375;-53
2021/05/23 12:24:37;;;;;;;4.95;1.27;;;;;;;;;;4418692;32;20715;-52
2021/05/23 12:27:03;;;;;;;1.90;1.10;;;;;;;;;;4405010;32;20267;-52
2021/05/23 12:29:28;;;;;;;2.83;1.20;;;;;;;;;;4418376;32;20420;-52
2021/05/23 12:31:53;;;;;;;3.95;1.30;;;;;;;;;;4408625;32;20363;-52
2021/05/23 12:34:19;;;;;;;4.55;1.65;;;;;;;;;;4403383;32;20531;-53
2021/05/23 12:36:44;;;;;;;1.35;0.98;;;;;;;;;;4403304;32;20218;-52
2021/05/23 12:39:10;;;;;;;3.15;1.17;;;;;;;;;;4403077;32;20618;-53
2021/05/23 12:41:46;;;;;;;1.73;1.08;;;;;;;;;;4402907;32;20275;-53
2021/05/23 12:44:18;;;;;;;2.75;1.25;;;;;;;;;;4389247;32;20229;-52
2021/05/23 12:46:45;;;;;;;5.37;1.58;;;;;;;;;;4403098;32;20258;-52
2021/05/23 12:49:15;;;;;;;5.97;1.27;;;;;;;;;;4403303;32;20229;-52
2021/05/23 12:51:45;;;;;;;2.58;1.10;;;;;;;;;;4403447;32;20523;-52
2021/05/23 12:54:10;;;;;;;4.10;1.37;;;;;;;;;;4404161;32;20288;-52
2021/05/23 12:56:36;;;;;;;4.85;1.15;;;;;;;;;;4418426;32;20609;-52
2021/05/23 12:59:20;;;;;;;5.37;1.92;;;;;;;;;;4403845;32;20232;-53
2021/05/23 13:01:46;;;;;;;3.00;1.52;;;;;;;;;;4418340;32;20213;-52
2021/05/23 13:04:20;;;;;;;11.88;1.17;;;;;;;;;;4417910;32;20300;-53
2021/05/23 13:06:53;;;;;;;2.70;0.90;;;;;;;;;;4418392;32;20555;-53
2021/05/23 13:09:20;;;;;;;3.97;0.88;;;;;;;;;;4417924;32;20209;-53
2021/05/23 13:11:53;;;;;;;6.20;1.02;;;;;;;;;;4418057;32;20237;-53
2021/05/23 13:14:20;;;;;;;3.92;1.20;;;;;;;;;;4417824;32;20629;-53
2021/05/23 13:16:56;;;;;;;7.12;1.10;;;;;;;;;;4417999;32;20583;-52
2021/05/23 13:19:26;;;;;;;2.47;1.60;;;;;;;;;;4403683;32;20714;-54
2021/05/23 13:21:54;;;;;;;6.80;1.23;;;;;;;;;;4417665;32;20648;-52
2021/05/23 13:24:23;;;;;;;9.85;2.45;;;;;;;;;;4417742;32;20209;-52
2021/05/23 13:26:51;;;;;;;4.37;1.12;;;;;;;;;;4417756;32;20339;-53
2021/05/23 13:29:16;;;;;;;6.65;1.45;;;;;;;;;;4417366;32;20323;-53
2021/05/23 13:31:42;;;;;;;5.07;1.83;;;;;;;;;;4408824;32;20249;-53
2021/05/23 13:34:09;;;;;;;2.10;1.27;;;;;;;;;;4402633;32;20533;-53
2021/05/23 13:36:35;;;;;;;9.77;1.62;;;;;;;;;;4402717;32;20218;-52
2021/05/23 13:39:00;;;;;;;4.80;1.02;;;;;;;;;;4402276;32;20239;-53
2021/05/23 13:41:27;;;;;;;4.82;2.05;;;;;;;;;;4402329;32;20232;-53
2021/05/23 13:43:53;;;;;;;12.70;2.33;;;;;;;;;;4402532;32;20209;-53
2021/05/23 13:46:18;;;;;;;9.32;2.00;;;;;;;;;;4402431;32;20268;-53
2021/05/23 13:48:44;;;;;;;11.50;1.75;;;;;;;;;;4402177;32;20232;-53
2021/05/23 13:51:09;;;;;;;5.20;1.23;;;;;;;;;;4402160;32;20217;-52
2021/05/23 13:53:35;;;;;;;4.93;1.42;;;;;;;;;;4402234;32;20202;-56
2021/05/23 13:56:01;;;;;;;4.93;2.03;;;;;;;;;;4415189;32;20264;-52
2021/05/23 13:58:26;;;;;;;4.18;1.52;;;;;;;;;;4418148;32;20231;-52
2021/05/23 14:00:52;;;;;;;6.65;1.40;;;;;;;;;;4417412;32;20437;-52
2021/05/23 14:03:21;;;;;;;4.12;1.50;;;;;;;;;;4417531;32;20272;-53
2021/05/23 14:05:48;;;;;;;6.93;1.30;;;;;;;;;;4417190;32;20217;-53
2021/05/23 14:08:15;;;;;;;9.90;1.70;;;;;;;;;;4403671;32;20256;-53
2021/05/23 14:10:41;;;;;;;23.52;2.17;;;;;;;;;;4417467;32;20631;-53
2021/05/23 14:13:08;;;;;;;9.52;1.60;;;;;;;;;;4417067;32;20225;-53
2021/05/23 14:15:36;;;;;;;8.52;1.90;;;;;;;;;;4403532;32;20237;-53
2021/05/23 14:18:02;;;;;;;10.18;1.50;;;;;;;;;;4417336;32;20224;-53
2021/05/23 14:20:27;;;;;;;16.35;2.00;;;;;;;;;;4417494;32;20311;-54
2021/05/23 14:22:53;;;;;;;17.80;2.87;;;;;;;;;;4417492;32;20247;-53
2021/05/23 14:25:23;;;;;;;8.95;2.33;;;;;;;;;;4416889;32;20227;-53
2021/05/23 14:27:49;;;;;;;6.53;1.42;;;;;;;;;;4403050;32;20355;-53
2021/05/23 14:30:16;;;;;;;15.23;2.10;;;;;;;;;;4416705;32;20347;-53
2021/05/23 14:32:43;;;;;;;9.95;1.45;;;;;;;;;;4417199;32;20217;-53
2021/05/23 14:35:10;;;;;;;4.95;1.95;;;;;;;;;;4416181;32;20422;-53
2021/05/23 14:37:35;;;;;;;14.30;1.92;;;;;;;;;;4415217;32;20351;-53
2021/05/23 14:40:02;;;;;;;6.65;1.50;;;;;;;;;;4414589;32;20295;-53
2021/05/23 14:42:28;;;;;;;14.10;2.42;;;;;;;;;;4415460;32;20300;-52
2021/05/23 14:44:53;;;;;;;10.02;1.58;;;;;;;;;;4414838;32;20228;-52